Time;durP1;ratioP1;P1;durP2;ratioP2;P2;SDS_P1;SDS_P2;PMS_P1;PMS_P2;Temp;Humidity;BMP_temperature;BMP_pressure;BME280_temperature;BME280_humidity;BME280_pressure;Samples;Min_cycle;Max_cycle;Signal;HPM_P1;HPM_P2
2023/07/28 00:01:43;;;;;;;4.57;2.00;;;;;;;;;;4970169;28;20266;-66
2023/07/28 00:04:10;;;;;;;2.87;2.23;;;;;;;;;;4969498;28;20557;-66
2023/07/28 00:06:54;;;;;;;4.23;2.03;;;;;;;;;;4966800;28;20184;-66
2023/07/28 00:09:22;;;;;;;3.33;2.00;;;;;;;;;;4967999;28;20253;-66
2023/07/28 00:11:49;;;;;;;4.50;2.20;;;;;;;;;;4970355;28;20200;-66
2023/07/28 00:14:16;;;;;;;3.07;1.90;;;;;;;;;;4953460;28;20197;-66
2023/07/28 00:16:42;;;;;;;9.20;2.07;;;;;;;;;;4951881;28;20632;-66
2023/07/28 00:19:09;;;;;;;2.93;2.20;;;;;;;;;;4970623;28;20236;-66
2023/07/28 00:21:36;;;;;;;3.77;2.00;;;;;;;;;;4970240;28;20240;-66
2023/07/28 00:24:02;;;;;;;2.83;1.90;;;;;;;;;;4967896;28;20229;-66
2023/07/28 00:26:29;;;;;;;4.03;2.10;;;;;;;;;;4969668;28;20280;-66
2023/07/28 00:28:57;;;;;;;4.40;2.37;;;;;;;;;;4970362;28;20283;-66
2023/07/28 00:31:24;;;;;;;3.60;2.10;;;;;;;;;;4969262;28;20197;-66
2023/07/28 00:34:08;;;;;;;3.07;2.03;;;;;;;;;;4953546;28;20197;-66
2023/07/28 00:36:35;;;;;;;2.60;1.97;;;;;;;;;;4970023;28;20265;-66
2023/07/28 00:39:03;;;;;;;3.43;1.90;;;;;;;;;;4970752;28;20272;-66
2023/07/28 00:41:30;;;;;;;4.20;1.97;;;;;;;;;;4961267;28;20240;-66
2023/07/28 00:43:57;;;;;;;4.07;2.27;;;;;;;;;;4970358;28;20680;-66
2023/07/28 00:46:41;;;;;;;4.33;1.90;;;;;;;;;;4953368;28;20265;-66
2023/07/28 00:49:08;;;;;;;5.00;2.30;;;;;;;;;;4969253;28;20288;-66
2023/07/28 00:51:35;;;;;;;8.00;2.10;;;;;;;;;;4951312;28;20287;-66
2023/07/28 00:54:02;;;;;;;3.93;1.90;;;;;;;;;;4952089;28;20197;-66
2023/07/28 00:56:28;;;;;;;4.70;2.17;;;;;;;;;;4951930;28;20238;-66
2023/07/28 00:59:13;;;;;;;2.77;2.10;;;;;;;;;;4971263;28;20200;-65
2023/07/28 01:01:39;;;;;;;5.40;1.90;;;;;;;;;;4931804;29;20610;-66
2023/07/28 01:04:23;;;;;;;3.67;2.27;;;;;;;;;;4951406;29;20189;-66
2023/07/28 01:06:57;;;;;;;4.40;3.03;;;;;;;;;;4944908;28;20514;-66
2023/07/28 01:09:24;;;;;;;3.90;2.43;;;;;;;;;;4967651;28;20204;-66
2023/07/28 01:44:07;;;;;;;5.13;2.93;;;;;;;;;;4972627;28;20175;-66
2023/07/28 01:46:34;;;;;;;4.10;2.50;;;;;;;;;;4973461;28;20213;-66
2023/07/28 01:49:01;;;;;;;4.77;2.77;;;;;;;;;;4957032;28;20224;-66
2023/07/28 01:51:27;;;;;;;5.57;3.13;;;;;;;;;;4964793;28;20208;-66
2023/07/28 01:53:54;;;;;;;5.80;2.87;;;;;;;;;;4974157;28;20186;-67
2023/07/28 01:56:21;;;;;;;4.07;2.70;;;;;;;;;;4973981;28;20213;-66
2023/07/28 01:58:48;;;;;;;5.90;3.60;;;;;;;;;;4956755;28;20244;-66
2023/07/28 02:01:14;;;;;;;5.30;3.20;;;;;;;;;;4955082;28;20240;-66
2023/07/28 02:03:41;;;;;;;4.63;2.97;;;;;;;;;;4955689;28;20189;-66
2023/07/28 02:06:08;;;;;;;6.10;3.60;;;;;;;;;;4971823;28;20244;-66
2023/07/28 02:08:52;;;;;;;5.50;3.20;;;;;;;;;;4971584;28;20182;-66
2023/07/28 02:11:18;;;;;;;6.10;2.90;;;;;;;;;;4972003;28;20189;-66
2023/07/28 02:14:03;;;;;;;4.57;3.00;;;;;;;;;;4955817;28;20180;-66
2023/07/28 02:16:31;;;;;;;4.00;2.40;;;;;;;;;;4972971;28;20220;-66
2023/07/28 02:18:59;;;;;;;7.00;2.57;;;;;;;;;;4972828;28;20205;-66
2023/07/28 02:21:27;;;;;;;3.50;2.30;;;;;;;;;;4971943;28;20212;-66
2023/07/28 02:23:54;;;;;;;4.00;2.80;;;;;;;;;;4969678;28;20193;-66
2023/07/28 02:26:20;;;;;;;4.37;2.40;;;;;;;;;;4971657;28;20986;-66
2023/07/28 02:28:47;;;;;;;6.50;2.73;;;;;;;;;;4955629;28;20600;-66
2023/07/28 02:31:14;;;;;;;4.63;2.63;;;;;;;;;;4972411;28;20200;-66
2023/07/28 02:33:41;;;;;;;5.97;2.33;;;;;;;;;;4953772;28;20208;-66
2023/07/28 02:36:08;;;;;;;3.83;2.57;;;;;;;;;;4972340;28;20276;-66
2023/07/28 02:38:34;;;;;;;5.30;3.07;;;;;;;;;;4971857;28;20279;-66
2023/07/28 02:41:03;;;;;;;4.13;2.30;;;;;;;;;;4971276;28;20245;-66
2023/07/28 02:43:30;;;;;;;4.10;2.53;;;;;;;;;;4969452;28;20213;-66
2023/07/28 02:45:57;;;;;;;3.87;2.77;;;;;;;;;;4971618;28;20228;-66
2023/07/28 02:48:41;;;;;;;3.93;2.90;;;;;;;;;;4958630;28;20566;-66
2023/07/28 02:51:08;;;;;;;3.90;2.50;;;;;;;;;;4972295;28;20584;-66
2023/07/28 02:53:34;;;;;;;5.33;2.50;;;;;;;;;;4953255;28;20343;-66
2023/07/28 02:56:01;;;;;;;3.70;2.60;;;;;;;;;;4954012;28;20194;-66
2023/07/28 02:58:28;;;;;;;3.33;2.67;;;;;;;;;;4954070;28;20248;-66
2023/07/28 03:01:12;;;;;;;4.57;2.80;;;;;;;;;;4954683;28;20194;-66
2023/07/28 03:03:39;;;;;;;7.97;2.73;;;;;;;;;;4952675;28;20206;-66
2023/07/28 03:06:06;;;;;;;4.67;2.77;;;;;;;;;;4972053;28;20196;-66
2023/07/28 03:08:35;;;;;;;3.50;2.50;;;;;;;;;;4972800;28;20201;-66
2023/07/28 03:11:21;;;;;;;5.83;2.50;;;;;;;;;;4971768;28;20220;-66
2023/07/28 03:13:48;;;;;;;5.43;2.80;;;;;;;;;;4953473;28;20673;-66
2023/07/28 03:16:15;;;;;;;4.90;2.87;;;;;;;;;;4971467;28;20190;-66
2023/07/28 03:18:42;;;;;;;5.10;2.73;;;;;;;;;;4969363;28;20194;-66
2023/07/28 03:21:09;;;;;;;3.90;2.70;;;;;;;;;;4950447;28;20207;-66
2023/07/28 03:23:36;;;;;;;3.07;2.60;;;;;;;;;;4938205;28;21350;-66
2023/07/28 03:26:02;;;;;;;4.40;2.63;;;;;;;;;;4937824;28;20196;-66
2023/07/28 03:28:29;;;;;;;7.27;3.00;;;;;;;;;;4972225;28;20193;-66
2023/07/28 03:30:56;;;;;;;3.53;2.40;;;;;;;;;;4970175;28;20552;-66
2023/07/28 03:33:23;;;;;;;5.13;2.83;;;;;;;;;;4953334;28;20193;-65
2023/07/28 03:36:08;;;;;;;4.43;2.73;;;;;;;;;;4953050;28;20208;-67
2023/07/28 03:38:36;;;;;;;5.80;2.50;;;;;;;;;;4949396;28;20526;-68
2023/07/28 03:41:04;;;;;;;4.20;2.90;;;;;;;;;;4954362;28;20198;-66
2023/07/28 03:43:31;;;;;;;4.87;2.87;;;;;;;;;;4972431;28;20196;-65
2023/07/28 03:45:57;;;;;;;6.53;3.10;;;;;;;;;;4953478;28;20596;-68
2023/07/28 03:48:24;;;;;;;4.80;3.00;;;;;;;;;;4952863;28;20198;-66
2023/07/28 03:50:51;;;;;;;7.03;2.87;;;;;;;;;;4953505;28;21049;-66
2023/07/28 03:53:18;;;;;;;4.77;3.00;;;;;;;;;;4951265;28;20198;-66
2023/07/28 03:55:44;;;;;;;6.40;2.83;;;;;;;;;;4970097;28;20198;-66
2023/07/28 03:58:11;;;;;;;4.67;2.80;;;;;;;;;;4970683;28;20328;-66
2023/07/28 04:00:38;;;;;;;6.53;3.10;;;;;;;;;;4953077;28;20283;-66
2023/07/28 04:03:04;;;;;;;5.53;2.97;;;;;;;;;;4968576;28;20194;-66
2023/07/28 04:05:31;;;;;;;6.03;2.80;;;;;;;;;;4970839;28;20256;-66
2023/07/28 04:07:58;;;;;;;4.23;2.60;;;;;;;;;;4953085;28;20291;-66
2023/07/28 04:10:24;;;;;;;7.53;2.80;;;;;;;;;;4968211;28;20669;-66
2023/07/28 04:12:51;;;;;;;5.00;3.10;;;;;;;;;;4954158;28;20320;-66
2023/07/28 04:15:18;;;;;;;5.80;3.10;;;;;;;;;;4953054;28;20578;-66
2023/07/28 04:18:02;;;;;;;3.93;2.60;;;;;;;;;;4954039;28;20680;-66
2023/07/28 04:20:29;;;;;;;4.93;2.90;;;;;;;;;;4949338;28;20220;-66
2023/07/28 04:23:13;;;;;;;4.90;2.70;;;;;;;;;;4970579;28;20188;-66
2023/07/28 04:25:40;;;;;;;7.50;2.80;;;;;;;;;;4936785;28;20934;-66
2023/07/28 04:28:07;;;;;;;5.67;2.60;;;;;;;;;;4969663;28;20197;-66
2023/07/28 04:30:33;;;;;;;4.30;2.90;;;;;;;;;;4968716;28;20199;-66
2023/07/28 04:33:01;;;;;;;5.80;2.70;;;;;;;;;;4952969;28;20882;-66
2023/07/28 04:35:34;;;;;;;5.07;2.90;;;;;;;;;;4952675;28;20573;-66
2023/07/28 04:38:11;;;;;;;5.53;3.17;;;;;;;;;;4944095;29;20249;-66
2023/07/28 04:40:47;;;;;;;4.17;3.23;;;;;;;;;;4921186;28;20866;-66
2023/07/28 04:43:17;;;;;;;4.27;3.07;;;;;;;;;;4953707;28;20296;-66
2023/07/28 04:45:51;;;;;;;5.50;3.23;;;;;;;;;;4952270;28;20287;-66
2023/07/28 04:48:21;;;;;;;4.50;3.03;;;;;;;;;;4949200;28;20202;-66
2023/07/28 04:51:25;;;;;;;3.90;2.83;;;;;;;;;;4946889;28;20204;-66
2023/07/28 04:54:15;;;;;;;5.40;3.37;;;;;;;;;;4952219;28;20205;-66
2023/07/28 04:56:59;;;;;;;4.10;2.90;;;;;;;;;;4955822;28;20209;-67
2023/07/28 04:59:31;;;;;;;5.97;3.50;;;;;;;;;;4949052;29;20946;-67
2023/07/28 05:01:58;;;;;;;5.93;2.97;;;;;;;;;;4952110;28;20826;-66
2023/07/28 05:04:25;;;;;;;4.57;3.30;;;;;;;;;;4953538;28;20292;-66
2023/07/28 05:06:52;;;;;;;6.77;3.30;;;;;;;;;;4949372;28;20201;-66
2023/07/28 05:09:19;;;;;;;7.00;3.37;;;;;;;;;;4970411;28;20196;-69
2023/07/28 05:11:46;;;;;;;6.40;3.40;;;;;;;;;;4956795;28;20216;-67
2023/07/28 05:14:15;;;;;;;7.60;3.77;;;;;;;;;;4944057;28;20266;-67
2023/07/28 05:16:43;;;;;;;6.63;3.40;;;;;;;;;;4948294;28;20313;-67
2023/07/28 05:19:10;;;;;;;4.90;3.20;;;;;;;;;;4966745;28;20185;-68
2023/07/28 05:21:51;;;;;;;5.47;3.23;;;;;;;;;;4965191;28;21001;-67
2023/07/28 05:24:23;;;;;;;7.23;2.97;;;;;;;;;;4946475;28;20200;-67
2023/07/28 05:26:50;;;;;;;8.80;3.50;;;;;;;;;;4950778;28;20198;-67
2023/07/28 05:29:16;;;;;;;6.47;3.60;;;;;;;;;;4946708;28;20194;-67
2023/07/28 05:32:04;;;;;;;6.87;3.63;;;;;;;;;;4950304;28;20169;-67
2023/07/28 05:34:41;;;;;;;5.80;3.50;;;;;;;;;;4951002;28;20196;-67
2023/07/28 05:37:09;;;;;;;5.20;3.20;;;;;;;;;;4967100;28;20561;-67
2023/07/28 05:39:36;;;;;;;8.23;3.37;;;;;;;;;;4931240;28;20229;-68
2023/07/28 05:42:03;;;;;;;5.17;3.70;;;;;;;;;;4944740;28;20197;-70
2023/07/28 05:44:34;;;;;;;8.30;3.77;;;;;;;;;;4948681;28;21016;-69
2023/07/28 05:47:00;;;;;;;5.97;3.63;;;;;;;;;;4947163;28;20230;-68
2023/07/28 05:49:27;;;;;;;9.03;3.90;;;;;;;;;;4948943;28;20402;-68
2023/07/28 05:51:54;;;;;;;8.03;4.13;;;;;;;;;;4945144;28;20193;-69
2023/07/28 05:54:21;;;;;;;5.60;3.60;;;;;;;;;;4948554;28;20226;-69
2023/07/28 05:56:48;;;;;;;9.80;4.73;;;;;;;;;;4946939;28;20205;-68
2023/07/28 05:59:14;;;;;;;7.97;4.13;;;;;;;;;;4949417;28;20189;-70
2023/07/28 06:01:41;;;;;;;5.40;3.87;;;;;;;;;;4950243;28;20209;-68
2023/07/28 06:04:11;;;;;;;11.23;4.27;;;;;;;;;;4967124;28;20198;-68
2023/07/28 06:06:43;;;;;;;8.93;4.50;;;;;;;;;;4947767;28;20863;-69
2023/07/28 06:09:13;;;;;;;8.67;4.03;;;;;;;;;;4948941;28;20650;-68
2023/07/28 06:11:40;;;;;;;8.67;4.43;;;;;;;;;;4936784;28;21128;-70
2023/07/28 06:14:07;;;;;;;10.67;4.03;;;;;;;;;;4945551;28;20198;-70
2023/07/28 06:16:36;;;;;;;9.47;4.37;;;;;;;;;;4932595;28;20197;-68
2023/07/28 06:19:04;;;;;;;6.10;4.17;;;;;;;;;;4949290;28;20205;-67
2023/07/28 06:21:32;;;;;;;7.97;4.17;;;;;;;;;;4947949;28;20260;-68
2023/07/28 06:23:59;;;;;;;8.83;4.57;;;;;;;;;;4949902;28;20676;-68
2023/07/28 06:26:26;;;;;;;9.70;4.40;;;;;;;;;;4948953;28;20200;-69
2023/07/28 06:28:53;;;;;;;6.17;4.10;;;;;;;;;;4964942;28;20201;-69
2023/07/28 06:31:20;;;;;;;7.77;4.00;;;;;;;;;;4951222;28;20248;-68
2023/07/28 06:33:48;;;;;;;6.53;3.83;;;;;;;;;;4948750;28;20202;-69
2023/07/28 06:36:14;;;;;;;6.37;4.30;;;;;;;;;;4964736;28;20194;-67
2023/07/28 06:38:43;;;;;;;9.30;4.20;;;;;;;;;;4969316;28;20588;-70
2023/07/28 06:41:27;;;;;;;9.07;4.30;;;;;;;;;;4953929;28;20538;-67
2023/07/28 06:43:59;;;;;;;8.43;4.80;;;;;;;;;;4950286;28;20197;-68
2023/07/28 06:46:26;;;;;;;10.57;4.67;;;;;;;;;;4958908;28;20961;-68
2023/07/28 06:48:53;;;;;;;9.23;4.27;;;;;;;;;;4949467;29;20198;-68
2023/07/28 06:51:20;;;;;;;7.30;4.30;;;;;;;;;;4952057;29;20409;-68
2023/07/28 06:54:04;;;;;;;7.47;4.20;;;;;;;;;;4958653;28;20185;-70
2023/07/28 06:56:31;;;;;;;6.47;4.13;;;;;;;;;;4965894;28;20650;-70
2023/07/28 06:58:58;;;;;;;7.20;4.30;;;;;;;;;;4970057;28;20247;-68
2023/07/28 07:01:41;;;;;;;6.87;4.43;;;;;;;;;;4951922;28;20695;-67
2023/07/28 07:04:25;;;;;;;6.60;4.40;;;;;;;;;;4967823;28;20182;-70
2023/07/28 07:06:52;;;;;;;9.03;4.80;;;;;;;;;;4970064;28;20231;-69
2023/07/28 07:09:19;;;;;;;6.30;4.73;;;;;;;;;;4953307;28;20198;-68
2023/07/28 07:11:46;;;;;;;7.60;4.50;;;;;;;;;;4959015;28;20256;-69
2023/07/28 07:14:14;;;;;;;9.30;5.40;;;;;;;;;;4953606;28;20202;-71
2023/07/28 07:16:41;;;;;;;5.23;4.30;;;;;;;;;;4969128;28;20197;-68
2023/07/28 07:19:08;;;;;;;7.10;4.60;;;;;;;;;;4965745;28;20304;-71
2023/07/28 07:21:35;;;;;;;7.63;5.00;;;;;;;;;;4968439;28;20217;-68
2023/07/28 07:24:03;;;;;;;6.07;4.77;;;;;;;;;;4968455;28;20263;-68
2023/07/28 07:26:33;;;;;;;6.30;4.53;;;;;;;;;;4967560;28;20202;-69
2023/07/28 07:29:00;;;;;;;8.87;5.07;;;;;;;;;;4955156;28;20228;-68
2023/07/28 07:31:27;;;;;;;6.73;4.60;;;;;;;;;;4967654;28;20267;-69
2023/07/28 07:33:54;;;;;;;8.37;4.90;;;;;;;;;;4969332;28;20288;-69
2023/07/28 07:36:21;;;;;;;6.50;5.03;;;;;;;;;;4966639;28;20272;-69
2023/07/28 07:38:48;;;;;;;6.17;4.23;;;;;;;;;;4968259;28;20219;-68
2023/07/28 07:41:21;;;;;;;4.63;3.30;;;;;;;;;;4967820;28;20186;-70
2023/07/28 07:43:48;;;;;;;6.97;3.10;;;;;;;;;;4967795;28;20194;-69
2023/07/28 07:46:15;;;;;;;4.27;3.20;;;;;;;;;;4966491;28;20221;-70
2023/07/28 07:48:43;;;;;;;5.27;3.23;;;;;;;;;;4967774;28;20197;-70
2023/07/28 07:51:10;;;;;;;4.57;3.17;;;;;;;;;;4950841;28;20229;-70
2023/07/28 07:53:37;;;;;;;4.10;2.90;;;;;;;;;;4964583;28;20189;-68
2023/07/28 07:56:04;;;;;;;7.50;3.60;;;;;;;;;;4966058;28;20668;-66
2023/07/28 07:58:31;;;;;;;4.77;3.10;;;;;;;;;;4966940;28;20225;-70
2023/07/28 08:00:58;;;;;;;7.00;3.43;;;;;;;;;;4948591;28;20186;-70
2023/07/28 08:03:25;;;;;;;7.07;3.50;;;;;;;;;;4967776;28;20863;-72
2023/07/28 08:05:52;;;;;;;4.57;3.57;;;;;;;;;;4963173;28;20200;-68
2023/07/28 08:08:19;;;;;;;5.57;3.80;;;;;;;;;;4964601;28;20577;-69
2023/07/28 08:10:47;;;;;;;5.63;3.30;;;;;;;;;;4938773;28;20213;-69
2023/07/28 08:13:14;;;;;;;5.30;4.13;;;;;;;;;;4967073;28;20774;-68
2023/07/28 08:15:44;;;;;;;6.27;3.73;;;;;;;;;;4948776;28;20190;-69
2023/07/28 08:18:11;;;;;;;6.40;3.50;;;;;;;;;;4967320;28;20225;-66
2023/07/28 08:20:38;;;;;;;4.77;3.87;;;;;;;;;;4967190;28;20264;-66
2023/07/28 08:23:05;;;;;;;6.40;3.83;;;;;;;;;;4966575;28;20198;-68
2023/07/28 08:25:32;;;;;;;4.43;3.70;;;;;;;;;;4960351;28;20500;-67
2023/07/28 08:28:01;;;;;;;5.33;3.87;;;;;;;;;;4931393;28;20210;-67
2023/07/28 08:30:28;;;;;;;5.30;3.27;;;;;;;;;;4968369;28;20712;-66
2023/07/28 08:32:55;;;;;;;8.00;3.60;;;;;;;;;;4967325;28;20699;-68
2023/07/28 08:35:22;;;;;;;6.40;3.47;;;;;;;;;;4967094;28;20211;-68
2023/07/28 08:37:49;;;;;;;8.40;3.70;;;;;;;;;;4948451;28;20213;-68
2023/07/28 08:40:16;;;;;;;6.90;3.50;;;;;;;;;;4950562;28;20194;-68
2023/07/28 08:42:44;;;;;;;5.17;3.53;;;;;;;;;;4966481;28;20289;-69
2023/07/28 08:45:18;;;;;;;4.83;3.00;;;;;;;;;;4947611;28;20202;-68
2023/07/28 08:47:45;;;;;;;4.43;2.97;;;;;;;;;;4966965;28;20193;-67
2023/07/28 08:50:12;;;;;;;4.87;3.23;;;;;;;;;;4969128;28;20204;-67
2023/07/28 08:52:39;;;;;;;4.53;3.13;;;;;;;;;;4966762;28;20589;-70
2023/07/28 08:55:06;;;;;;;4.47;3.00;;;;;;;;;;4968542;28;20197;-69
2023/07/28 08:57:33;;;;;;;5.03;2.97;;;;;;;;;;4951506;28;20197;-69
2023/07/28 09:00:06;;;;;;;3.63;3.07;;;;;;;;;;4951519;28;20197;-71
2023/07/28 09:02:33;;;;;;;3.30;3.00;;;;;;;;;;4958021;28;20189;-67
2023/07/28 09:05:02;;;;;;;4.87;3.10;;;;;;;;;;4969324;28;20193;-67
2023/07/28 09:07:34;;;;;;;4.43;3.30;;;;;;;;;;4951817;28;20197;-68
2023/07/28 09:10:01;;;;;;;6.30;3.37;;;;;;;;;;4967690;28;20201;-68
2023/07/28 09:12:30;;;;;;;4.13;2.97;;;;;;;;;;4937780;28;20240;-68
2023/07/28 09:14:57;;;;;;;3.50;3.00;;;;;;;;;;4966569;28;20216;-69
2023/07/28 09:17:24;;;;;;;5.37;3.07;;;;;;;;;;4948643;28;20181;-69
2023/07/28 09:19:54;;;;;;;7.77;3.90;;;;;;;;;;4965853;28;21093;-67
2023/07/28 09:22:21;;;;;;;5.13;3.53;;;;;;;;;;4967194;28;20775;-69
2023/07/28 09:24:49;;;;;;;5.30;3.57;;;;;;;;;;4947477;28;20219;-69
2023/07/28 09:27:23;;;;;;;4.47;3.47;;;;;;;;;;4965934;28;20201;-68
2023/07/28 09:29:50;;;;;;;4.67;3.67;;;;;;;;;;4963148;28;20467;-67
2023/07/28 09:32:25;;;;;;;5.00;3.97;;;;;;;;;;4967103;28;20261;-67
2023/07/28 09:34:58;;;;;;;6.27;3.50;;;;;;;;;;4957677;28;20192;-67
2023/07/28 09:37:25;;;;;;;4.93;3.40;;;;;;;;;;4943508;28;20309;-68
2023/07/28 09:39:52;;;;;;;3.87;3.20;;;;;;;;;;4965750;28;20253;-68
2023/07/28 09:42:19;;;;;;;6.43;3.90;;;;;;;;;;4965350;28;20219;-68
2023/07/28 09:44:46;;;;;;;6.83;3.63;;;;;;;;;;4967535;28;20189;-68
2023/07/28 09:47:13;;;;;;;4.43;3.50;;;;;;;;;;4953142;28;20248;-69
2023/07/28 09:49:40;;;;;;;9.63;4.03;;;;;;;;;;4946953;29;20245;-67
2023/07/28 09:52:10;;;;;;;5.47;3.60;;;;;;;;;;4956533;28;20200;-68
2023/07/28 09:54:41;;;;;;;6.77;3.30;;;;;;;;;;4951044;28;20193;-68
2023/07/28 09:57:09;;;;;;;6.00;3.60;;;;;;;;;;4968324;28;20201;-67
2023/07/28 09:59:37;;;;;;;6.63;3.87;;;;;;;;;;4934176;28;20788;-68
2023/07/28 10:02:21;;;;;;;5.73;3.77;;;;;;;;;;4945338;28;20256;-69
2023/07/28 10:04:48;;;;;;;6.47;3.87;;;;;;;;;;4967510;28;20513;-70
2023/07/28 10:07:15;;;;;;;6.87;4.37;;;;;;;;;;4968590;28;20186;-68
2023/07/28 10:09:42;;;;;;;6.50;4.33;;;;;;;;;;4969442;28;20284;-68
2023/07/28 10:12:17;;;;;;;7.03;3.60;;;;;;;;;;4929261;28;20698;-72
2023/07/28 10:14:44;;;;;;;5.67;4.30;;;;;;;;;;4953472;28;20204;-72
2023/07/28 10:17:15;;;;;;;7.30;4.23;;;;;;;;;;4951904;28;20197;-77
2023/07/28 10:19:43;;;;;;;4.97;4.03;;;;;;;;;;4947080;28;20233;-69
2023/07/28 10:22:10;;;;;;;7.20;4.10;;;;;;;;;;4965183;28;20277;-69
2023/07/28 10:24:53;;;;;;;5.37;4.00;;;;;;;;;;4968783;28;20193;-75
2023/07/28 10:27:46;;;;;;;5.50;3.77;;;;;;;;;;4968626;28;20189;-70
2023/07/28 10:30:14;;;;;;;7.80;4.00;;;;;;;;;;4947721;28;20262;-70
2023/07/28 10:32:58;;;;;;;6.93;3.67;;;;;;;;;;4970851;28;20192;-71
2023/07/28 10:35:25;;;;;;;6.57;4.10;;;;;;;;;;4955151;28;20222;-70
2023/07/28 10:37:59;;;;;;;5.47;4.10;;;;;;;;;;4952503;28;20716;-70
2023/07/28 10:40:30;;;;;;;5.00;4.00;;;;;;;;;;4950884;28;20217;-70
2023/07/28 10:42:57;;;;;;;6.37;4.30;;;;;;;;;;4965941;28;20212;-69
2023/07/28 10:45:25;;;;;;;4.73;4.03;;;;;;;;;;4970108;28;20275;-69
2023/07/28 10:47:52;;;;;;;6.73;4.20;;;;;;;;;;4970597;28;20857;-71
2023/07/28 10:50:20;;;;;;;5.80;4.07;;;;;;;;;;4971016;28;20747;-58
2023/07/28 10:52:46;;;;;;;9.70;3.80;;;;;;;;;;4972099;28;20190;-58
2023/07/28 10:55:14;;;;;;;8.93;4.37;;;;;;;;;;4958189;28;20201;-57
2023/07/28 10:57:44;;;;;;;5.63;4.20;;;;;;;;;;4974717;28;20553;-59
2023/07/28 11:00:14;;;;;;;3.90;3.50;;;;;;;;;;4973910;28;20311;-59
2023/07/28 11:02:44;;;;;;;6.07;4.50;;;;;;;;;;4973295;28;21041;-59
2023/07/28 11:05:14;;;;;;;6.53;3.83;;;;;;;;;;4973024;28;20803;-59
2023/07/28 11:07:42;;;;;;;4.53;3.97;;;;;;;;;;4971326;28;20205;-59
2023/07/28 11:10:11;;;;;;;4.53;4.13;;;;;;;;;;4955621;28;20224;-59
2023/07/28 11:12:42;;;;;;;5.30;4.00;;;;;;;;;;4970054;28;20185;-60
2023/07/28 11:15:12;;;;;;;8.23;4.60;;;;;;;;;;4964987;28;20414;-66
2023/07/28 11:17:44;;;;;;;6.73;4.77;;;;;;;;;;4970184;28;20918;-66
2023/07/28 11:20:16;;;;;;;7.27;4.70;;;;;;;;;;4970925;28;20221;-67
2023/07/28 11:23:03;;;;;;;5.47;4.30;;;;;;;;;;4971575;28;20299;-67
2023/07/28 11:25:31;;;;;;;7.13;4.33;;;;;;;;;;4950172;28;20205;-66
2023/07/28 11:28:00;;;;;;;8.60;5.20;;;;;;;;;;4972108;28;20606;-66
2023/07/28 11:30:27;;;;;;;7.77;4.40;;;;;;;;;;4973318;28;20186;-66
2023/07/28 11:32:54;;;;;;;5.93;4.57;;;;;;;;;;4972180;28;20832;-66
2023/07/28 11:35:22;;;;;;;6.77;4.40;;;;;;;;;;4972051;28;20192;-66
2023/07/28 11:37:52;;;;;;;6.40;4.50;;;;;;;;;;4972010;28;20208;-66
2023/07/28 11:40:20;;;;;;;6.30;4.70;;;;;;;;;;4971557;28;20272;-66
2023/07/28 11:42:48;;;;;;;11.47;4.93;;;;;;;;;;4971717;28;20523;-66
2023/07/28 11:45:16;;;;;;;6.93;4.70;;;;;;;;;;4970419;28;20201;-66
2023/07/28 11:47:53;;;;;;;6.50;4.60;;;;;;;;;;4972876;28;20216;-66
2023/07/28 11:50:42;;;;;;;6.30;4.70;;;;;;;;;;4972035;28;20695;-66
2023/07/28 11:53:09;;;;;;;7.60;4.60;;;;;;;;;;4969485;28;20700;-66
2023/07/28 11:55:36;;;;;;;7.97;4.50;;;;;;;;;;4971295;28;20197;-66
2023/07/28 11:58:04;;;;;;;6.87;5.30;;;;;;;;;;4970286;28;20200;-67
2023/07/28 12:00:34;;;;;;;6.77;4.03;;;;;;;;;;4953185;28;20224;-66
2023/07/28 12:03:10;;;;;;;7.13;4.33;;;;;;;;;;4971716;28;20189;-66
2023/07/28 12:05:38;;;;;;;5.10;4.37;;;;;;;;;;4968128;28;20201;-66
2023/07/28 12:08:32;;;;;;;6.13;4.57;;;;;;;;;;4965856;28;20603;-67
2023/07/28 12:10:59;;;;;;;7.80;4.20;;;;;;;;;;4964321;28;20193;-66
2023/07/28 12:13:29;;;;;;;6.27;4.03;;;;;;;;;;4969579;28;20273;-69
2023/07/28 12:15:58;;;;;;;5.47;4.57;;;;;;;;;;4971554;28;20217;-69
2023/07/28 12:18:29;;;;;;;7.93;4.40;;;;;;;;;;4970518;28;20292;-69
2023/07/28 12:21:00;;;;;;;5.37;4.50;;;;;;;;;;4970262;28;20197;-69
2023/07/28 12:23:27;;;;;;;7.87;4.47;;;;;;;;;;4968496;28;20225;-68
2023/07/28 12:25:58;;;;;;;8.13;4.73;;;;;;;;;;4969759;28;20275;-69
2023/07/28 12:28:25;;;;;;;7.30;4.37;;;;;;;;;;4949331;28;20201;-68
2023/07/28 12:30:55;;;;;;;11.77;4.73;;;;;;;;;;4947867;28;20209;-68
2023/07/28 12:33:23;;;;;;;8.80;4.47;;;;;;;;;;4968469;28;20201;-67
2023/07/28 12:35:51;;;;;;;5.27;4.03;;;;;;;;;;4965058;28;20320;-68
2023/07/28 12:38:18;;;;;;;6.47;4.60;;;;;;;;;;4947586;28;20201;-68
2023/07/28 12:40:48;;;;;;;9.13;4.67;;;;;;;;;;4961912;28;20228;-67
2023/07/28 12:43:18;;;;;;;7.43;4.77;;;;;;;;;;4949609;28;20197;-67
2023/07/28 12:45:47;;;;;;;5.77;4.43;;;;;;;;;;4965567;28;20229;-66
2023/07/28 12:48:19;;;;;;;6.20;4.17;;;;;;;;;;4968931;28;20642;-68
2023/07/28 12:50:47;;;;;;;8.30;4.50;;;;;;;;;;4966659;28;20195;-67
2023/07/28 12:53:15;;;;;;;5.50;4.50;;;;;;;;;;4948810;28;20288;-72
2023/07/28 12:55:49;;;;;;;7.57;4.70;;;;;;;;;;4941969;29;20214;-71
2023/07/28 12:58:18;;;;;;;6.63;4.33;;;;;;;;;;4921288;29;21019;-67
2023/07/28 13:00:48;;;;;;;5.03;4.10;;;;;;;;;;4947421;29;20696;-68
2023/07/28 13:03:17;;;;;;;8.93;4.80;;;;;;;;;;4948421;28;20217;-67
2023/07/28 13:05:46;;;;;;;8.30;4.67;;;;;;;;;;4950873;29;20281;-67
2023/07/28 13:08:13;;;;;;;5.23;3.90;;;;;;;;;;4951127;29;20197;-68
2023/07/28 13:10:40;;;;;;;7.47;4.70;;;;;;;;;;4932567;29;20194;-67
2023/07/28 13:13:10;;;;;;;5.90;4.67;;;;;;;;;;4942904;28;20218;-67
2023/07/28 13:15:41;;;;;;;4.97;4.07;;;;;;;;;;4947429;28;20200;-68
2023/07/28 13:18:08;;;;;;;12.97;5.13;;;;;;;;;;4946730;29;20286;-68
2023/07/28 13:20:36;;;;;;;13.03;4.97;;;;;;;;;;4945979;28;20314;-67
2023/07/28 13:23:03;;;;;;;5.90;4.87;;;;;;;;;;4948749;29;20287;-68
2023/07/28 13:25:29;;;;;;;6.70;4.70;;;;;;;;;;4943104;28;20661;-68
2023/07/28 13:27:56;;;;;;;19.73;5.43;;;;;;;;;;4946819;28;20205;-67
2023/07/28 13:30:23;;;;;;;22.93;6.17;;;;;;;;;;4930792;29;20540;-68
2023/07/28 13:32:52;;;;;;;13.50;5.23;;;;;;;;;;4947802;29;20804;-67
2023/07/28 13:35:19;;;;;;;9.53;4.50;;;;;;;;;;4949494;29;20709;-68
2023/07/28 13:37:46;;;;;;;7.37;4.67;;;;;;;;;;4947506;29;20290;-69
2023/07/28 13:40:13;;;;;;;7.33;4.97;;;;;;;;;;4950225;28;20727;-69
2023/07/28 13:42:39;;;;;;;8.40;5.43;;;;;;;;;;4950647;29;20189;-68
2023/07/28 13:45:07;;;;;;;8.67;4.53;;;;;;;;;;4933873;28;20249;-72
2023/07/28 13:47:34;;;;;;;9.23;5.23;;;;;;;;;;4931587;29;20267;-72
2023/07/28 13:50:01;;;;;;;7.47;4.10;;;;;;;;;;4922932;29;20666;-69
2023/07/28 13:52:28;;;;;;;7.27;4.70;;;;;;;;;;4952530;28;20205;-70
2023/07/28 13:54:55;;;;;;;6.73;4.73;;;;;;;;;;4949879;29;20205;-73
2023/07/28 13:57:25;;;;;;;17.50;5.10;;;;;;;;;;4950453;29;20195;-70
2023/07/28 13:59:52;;;;;;;26.90;6.10;;;;;;;;;;4941711;29;20974;-70
2023/07/28 14:02:19;;;;;;;11.10;4.57;;;;;;;;;;4934600;29;20222;-68
2023/07/28 14:04:46;;;;;;;7.33;4.53;;;;;;;;;;4952629;28;22319;-68
2023/07/28 14:07:12;;;;;;;6.97;4.47;;;;;;;;;;4932914;29;20685;-69
2023/07/28 14:09:57;;;;;;;5.93;4.50;;;;;;;;;;4950325;29;20179;-69
2023/07/28 14:12:23;;;;;;;12.67;4.70;;;;;;;;;;4950367;29;20209;-69
2023/07/28 14:14:50;;;;;;;18.67;5.43;;;;;;;;;;4952594;28;20300;-68
2023/07/28 14:17:17;;;;;;;7.77;4.60;;;;;;;;;;4933331;29;20218;-69
2023/07/28 14:19:43;;;;;;;10.17;6.20;;;;;;;;;;4948356;28;20210;-70
2023/07/28 14:22:10;;;;;;;8.27;4.23;;;;;;;;;;4923622;29;20282;-70
2023/07/28 14:24:37;;;;;;;5.67;4.17;;;;;;;;;;4947561;29;20258;-68
2023/07/28 14:27:04;;;;;;;10.53;4.30;;;;;;;;;;4929411;29;20258;-69
2023/07/28 14:29:31;;;;;;;7.33;3.63;;;;;;;;;;4942193;29;20203;-68
2023/07/28 14:31:58;;;;;;;5.10;4.03;;;;;;;;;;4948142;29;20226;-70
2023/07/28 14:34:25;;;;;;;4.83;4.00;;;;;;;;;;4947168;28;20205;-68
2023/07/28 14:36:51;;;;;;;7.10;4.23;;;;;;;;;;4949593;29;20295;-68
2023/07/28 14:39:18;;;;;;;6.07;4.20;;;;;;;;;;4952840;28;20577;-69
2023/07/28 14:41:45;;;;;;;6.57;4.10;;;;;;;;;;4949665;29;20222;-68
2023/07/28 14:44:11;;;;;;;8.53;4.17;;;;;;;;;;4948065;29;20912;-69
2023/07/28 14:46:40;;;;;;;9.07;4.37;;;;;;;;;;4947585;28;20249;-68
2023/07/28 14:49:06;;;;;;;6.63;3.63;;;;;;;;;;4947163;29;20527;-68
2023/07/28 14:51:33;;;;;;;6.53;4.20;;;;;;;;;;4948068;28;20199;-68
2023/07/28 14:54:01;;;;;;;7.43;3.70;;;;;;;;;;4949180;29;20194;-69
2023/07/28 14:56:27;;;;;;;8.43;4.00;;;;;;;;;;4948929;28;20200;-69
2023/07/28 14:58:55;;;;;;;8.23;4.13;;;;;;;;;;4940820;29;20230;-68
2023/07/28 15:01:21;;;;;;;5.60;3.60;;;;;;;;;;4947431;29;20226;-69
2023/07/28 15:03:48;;;;;;;7.33;4.00;;;;;;;;;;4946935;29;20230;-69
2023/07/28 15:06:15;;;;;;;4.50;3.60;;;;;;;;;;4947931;28;20205;-69
2023/07/28 15:08:42;;;;;;;7.63;4.40;;;;;;;;;;4945629;29;20190;-69
2023/07/28 15:11:09;;;;;;;5.67;3.40;;;;;;;;;;4950994;29;20652;-69
2023/07/28 15:13:36;;;;;;;4.00;3.10;;;;;;;;;;4945572;29;20198;-72
2023/07/28 15:16:03;;;;;;;5.40;3.53;;;;;;;;;;4924146;28;20214;-71
2023/07/28 15:18:30;;;;;;;4.27;3.23;;;;;;;;;;4931122;29;20190;-70
2023/07/28 15:20:59;;;;;;;4.20;3.50;;;;;;;;;;4947557;29;20206;-70
2023/07/28 15:23:26;;;;;;;7.27;3.33;;;;;;;;;;4930741;29;20590;-71
2023/07/28 15:25:56;;;;;;;4.30;3.23;;;;;;;;;;4946584;29;20197;-72
2023/07/28 15:28:24;;;;;;;5.27;3.13;;;;;;;;;;4944308;28;20197;-71